Time;durP1;ratioP1;P1;durP2;ratioP2;P2;SDS_P1;SDS_P2;PMS_P1;PMS_P2;Temp;Humidity;BMP_temperature;BMP_pressure;BME280_temperature;BME280_humidity;BME280_pressure;Samples;Min_cycle;Max_cycle;Signal;HPM_P1;HPM_P2
2022/12/22 03:28:12;;;;;;;368.58;47.05;;;8.10;99.90;;;;;;5009753;28;20473;-73
2022/12/22 03:30:38;;;;;;;283.70;44.53;;;8.10;99.90;;;;;;5026468;28;20806;-73
2022/12/22 03:33:04;;;;;;;339.52;47.85;;;8.10;99.90;;;;;;5027331;28;20411;-73
2022/12/22 03:35:29;;;;;;;229.45;41.67;;;8.10;99.90;;;;;;4993567;28;20928;-73
2022/12/22 03:37:55;;;;;;;302.97;45.13;;;8.10;99.90;;;;;;5027352;28;20465;-73
2022/12/22 03:40:21;;;;;;;365.58;48.03;;;8.00;99.90;;;;;;5004474;28;20938;-73
2022/12/22 03:48:14;;;;;;;374.58;49.65;;;8.10;99.90;;;;;;5010126;28;21181;-74
2022/12/22 03:50:40;;;;;;;448.23;51.78;;;8.10;99.90;;;;;;5028266;28;20438;-73
2022/12/22 03:53:05;;;;;;;315.03;47.87;;;8.00;99.90;;;;;;5026593;28;20417;-73
2022/12/22 03:55:31;;;;;;;345.85;48.13;;;8.10;99.90;;;;;;5010079;28;20414;-73
2022/12/22 03:57:57;;;;;;;276.77;45.27;;;8.10;99.90;;;;;;5010241;28;20779;-74
2022/12/22 04:00:23;;;;;;;281.80;47.40;;;8.10;99.90;;;;;;5027060;28;20872;-73
2022/12/22 04:02:48;;;;;;;301.80;48.58;;;8.00;99.90;;;;;;5009820;28;20406;-73
2022/12/22 04:05:14;;;;;;;317.63;49.70;;;8.10;99.90;;;;;;5009776;28;20919;-73
2022/12/22 04:07:39;;;;;;;312.48;50.75;;;8.10;99.90;;;;;;5027715;28;20434;-73
2022/12/22 04:12:54;;;;;;;349.45;51.88;;;8.10;99.90;;;;;;5027466;28;20415;-73
2022/12/22 04:15:20;;;;;;;359.60;51.83;;;8.10;99.90;;;;;;4993676;28;20922;-73
2022/12/22 04:17:46;;;;;;;328.50;50.13;;;8.10;99.90;;;;;;5009084;28;20419;-73
2022/12/22 04:20:12;;;;;;;376.60;52.80;;;8.10;99.90;;;;;;5026918;28;21001;-73
2022/12/22 04:22:37;;;;;;;304.38;49.00;;;8.10;99.90;;;;;;5027546;28;20522;-73
2022/12/22 04:25:03;;;;;;;303.75;49.22;;;8.10;99.90;;;;;;5009820;28;20407;-73
2022/12/22 04:27:29;;;;;;;349.02;50.88;;;8.10;99.90;;;;;;5009258;28;20415;-73
2022/12/22 04:29:55;;;;;;;252.20;46.83;;;8.10;99.90;;;;;;5009235;28;20414;-73
2022/12/22 04:32:20;;;;;;;330.70;50.83;;;8.10;99.90;;;;;;5009654;28;20415;-73
2022/12/22 04:34:46;;;;;;;357.47;48.97;;;8.10;99.90;;;;;;5009820;28;20446;-73
2022/12/22 04:37:11;;;;;;;334.15;48.75;;;8.10;99.90;;;;;;5027442;28;20497;-75
2022/12/22 04:39:37;;;;;;;279.20;48.30;;;8.10;99.90;;;;;;5009580;28;20514;-75
2022/12/22 04:42:02;;;;;;;322.73;47.83;;;8.10;99.90;;;;;;5026951;28;20910;-75
2022/12/22 04:44:28;;;;;;;246.83;45.43;;;8.10;99.90;;;;;;5026844;28;20439;-75
2022/12/22 04:46:54;;;;;;;292.90;47.83;;;8.10;99.90;;;;;;5027357;28;20461;-75
2022/12/22 04:49:19;;;;;;;247.93;46.33;;;8.10;99.90;;;;;;5009668;28;20851;-75
2022/12/22 04:51:45;;;;;;;209.25;44.72;;;8.10;99.90;;;;;;5029372;28;20407;-75
2022/12/22 04:54:10;;;;;;;224.30;45.23;;;8.10;99.90;;;;;;5013255;28;20788;-75
2022/12/22 04:56:36;;;;;;;262.45;47.05;;;8.20;99.90;;;;;;5031302;28;20486;-75
2022/12/22 04:59:02;;;;;;;255.27;45.83;;;8.10;99.90;;;;;;5012485;28;20490;-75
2022/12/22 05:01:28;;;;;;;212.38;45.60;;;8.20;99.90;;;;;;5031169;28;20431;-75
2022/12/22 05:03:53;;;;;;;242.25;46.50;;;8.20;99.90;;;;;;5030798;28;20422;-75
2022/12/22 05:06:19;;;;;;;234.60;45.10;;;8.20;99.90;;;;;;5031716;28;20747;-75
2022/12/22 05:08:44;;;;;;;214.57;44.08;;;8.10;99.90;;;;;;5013179;28;20411;-75
2022/12/22 05:11:10;;;;;;;173.20;41.83;;;8.10;99.90;;;;;;5031178;28;20407;-75
2022/12/22 05:13:36;;;;;;;186.90;42.95;;;8.10;99.90;;;;;;5030423;28;20406;-75
2022/12/22 05:16:07;;;;;;;171.60;42.33;;;8.10;99.90;;;;;;5027562;28;21007;-75
2022/12/22 05:18:33;;;;;;;166.90;39.45;;;8.10;99.90;;;;;;5030513;28;20794;-75
2022/12/22 05:21:11;;;;;;;163.18;40.00;;;8.10;99.90;;;;;;5012784;28;20782;-75
2022/12/22 05:23:38;;;;;;;177.68;41.35;;;8.10;99.90;;;;;;5012907;28;20422;-75
2022/12/22 05:26:04;;;;;;;184.13;41.97;;;8.10;99.90;;;;;;5012242;28;20447;-75
2022/12/22 05:28:31;;;;;;;170.17;40.57;;;8.10;99.90;;;;;;5008552;28;20399;-75
2022/12/22 05:30:56;;;;;;;147.18;39.15;;;8.10;99.90;;;;;;5030766;28;20410;-75
2022/12/22 05:33:22;;;;;;;165.80;39.80;;;8.00;99.90;;;;;;5029639;28;20405;-75
2022/12/22 05:35:48;;;;;;;129.00;37.07;;;8.00;99.90;;;;;;5012953;28;20549;-75
2022/12/22 05:38:13;;;;;;;149.80;38.22;;;8.00;99.90;;;;;;4996615;28;20407;-75
2022/12/22 05:40:39;;;;;;;139.33;37.13;;;8.10;99.90;;;;;;5030742;28;20430;-75
2022/12/22 05:43:05;;;;;;;128.55;35.75;;;8.00;99.90;;;;;;5011816;28;20411;-75
2022/12/22 05:45:30;;;;;;;134.63;36.50;;;8.00;99.90;;;;;;5030058;28;20407;-75
2022/12/22 05:47:56;;;;;;;130.98;34.85;;;8.00;99.90;;;;;;5030477;28;20505;-75
2022/12/22 05:50:23;;;;;;;125.97;34.00;;;8.00;99.90;;;;;;5026558;28;20746;-75
2022/12/22 05:52:49;;;;;;;110.73;32.57;;;7.90;99.90;;;;;;5028488;28;20915;-75
2022/12/22 05:55:15;;;;;;;102.67;31.73;;;7.90;99.90;;;;;;5008457;28;20438;-75
2022/12/22 05:57:41;;;;;;;88.57;30.00;;;7.90;99.90;;;;;;5011088;28;20438;-75
2022/12/22 06:00:13;;;;;;;102.07;29.55;;;7.90;99.90;;;;;;5011901;28;20439;-73
2022/12/22 06:02:40;;;;;;;93.35;29.30;;;7.80;99.90;;;;;;5012310;28;20411;-73
2022/12/22 06:05:06;;;;;;;94.00;28.17;;;7.80;99.90;;;;;;5030087;28;20403;-73
2022/12/22 06:07:32;;;;;;;100.57;29.50;;;7.70;99.90;;;;;;5030098;28;20411;-73
2022/12/22 06:09:58;;;;;;;100.40;28.85;;;7.70;99.90;;;;;;5012086;28;20411;-73
2022/12/22 06:12:23;;;;;;;100.53;29.70;;;7.60;99.90;;;;;;5011568;28;20403;-73
2022/12/22 06:14:49;;;;;;;147.37;31.10;;;7.50;99.90;;;;;;5029500;28;20513;-73
2022/12/22 06:17:15;;;;;;;159.07;32.10;;;7.40;99.90;;;;;;5028607;28;20411;-73
2022/12/22 06:19:40;;;;;;;141.97;31.93;;;7.40;99.90;;;;;;5029294;28;20855;-73
2022/12/22 06:22:06;;;;;;;148.55;31.77;;;7.30;99.90;;;;;;5011844;28;20955;-73
2022/12/22 06:24:33;;;;;;;171.80;33.05;;;7.20;99.90;;;;;;5010889;28;20514;-73
2022/12/22 06:26:59;;;;;;;163.52;32.05;;;7.10;99.90;;;;;;5011743;28;20998;-73
2022/12/22 06:29:25;;;;;;;163.07;33.00;;;7.10;99.90;;;;;;5029645;28;20407;-73
2022/12/22 06:31:51;;;;;;;172.20;33.70;;;7.00;99.90;;;;;;5011776;28;20489;-72
2022/12/22 06:34:16;;;;;;;244.10;35.23;;;6.90;99.90;;;;;;5029103;28;20441;-73
2022/12/22 06:36:44;;;;;;;332.77;39.28;;;6.90;99.90;;;;;;5029827;28;20410;-73
2022/12/22 06:39:09;;;;;;;268.33;36.63;;;6.90;99.90;;;;;;5024523;28;20458;-73
2022/12/22 06:44:19;;;;;;;422.87;40.07;;;6.70;99.90;;;;;;5017269;28;20411;-73
2022/12/22 06:46:45;;;;;;;196.82;32.78;;;6.60;99.90;;;;;;4999499;28;20471;-73
2022/12/22 06:49:10;;;;;;;194.37;32.03;;;6.50;99.90;;;;;;5029315;28;21151;-73
2022/12/22 06:51:36;;;;;;;318.33;37.03;;;6.50;99.90;;;;;;5011212;28;20509;-73
2022/12/22 06:54:01;;;;;;;225.53;32.60;;;6.40;99.90;;;;;;5000017;28;20439;-73
2022/12/22 06:56:27;;;;;;;287.33;34.43;;;6.40;99.90;;;;;;5028810;28;20410;-73
2022/12/22 06:58:53;;;;;;;210.63;30.13;;;6.30;99.90;;;;;;5005016;28;20415;-73
2022/12/22 07:01:19;;;;;;;246.90;32.23;;;6.30;99.90;;;;;;5005746;28;20438;-73
2022/12/22 07:03:44;;;;;;;359.60;37.20;;;6.20;99.90;;;;;;5004971;28;20420;-73
2022/12/22 07:06:10;;;;;;;476.85;41.00;;;6.10;99.90;;;;;;5005669;28;20415;-73
2022/12/22 07:08:36;;;;;;;287.80;33.50;;;6.10;99.90;;;;;;5028685;28;20411;-73
2022/12/22 07:11:01;;;;;;;500.70;42.57;;;6.10;99.90;;;;;;5010881;28;20465;-73
2022/12/22 07:13:31;;;;;;;455.50;39.60;;;6.10;99.90;;;;;;5028654;28;20404;-72
2022/12/22 07:15:57;;;;;;;329.58;32.38;;;6.00;99.90;;;;;;5028480;28;20442;-73
2022/12/22 07:18:23;;;;;;;282.13;31.85;;;6.00;99.90;;;;;;5010738;28;20450;-73
2022/12/22 07:20:48;;;;;;;253.43;28.42;;;5.90;99.90;;;;;;5028052;28;20510;-73
2022/12/22 07:23:14;;;;;;;192.70;26.03;;;5.90;99.90;;;;;;5010709;28;20494;-73
2022/12/22 07:25:40;;;;;;;412.67;36.78;;;5.80;99.90;;;;;;5028372;28;21218;-72
2022/12/22 07:28:06;;;;;;;423.70;35.70;;;5.80;99.90;;;;;;5025828;28;20422;-73
2022/12/22 07:30:32;;;;;;;485.58;36.55;;;5.80;99.90;;;;;;5010630;28;20810;-73
2022/12/22 07:32:58;;;;;;;135.75;26.35;;;5.70;99.90;;;;;;5001953;28;20431;-73
2022/12/22 07:35:23;;;;;;;228.87;27.50;;;5.70;99.90;;;;;;5019322;28;20428;-73
2022/12/22 07:37:49;;;;;;;132.43;26.70;;;5.70;99.90;;;;;;5027201;28;20469;-73
2022/12/22 07:40:15;;;;;;;123.00;29.27;;;5.80;99.90;;;;;;5009720;28;20787;-73
2022/12/22 07:42:44;;;;;;;102.10;27.35;;;5.80;99.90;;;;;;5009420;28;20462;-73
2022/12/22 07:45:15;;;;;;;112.50;27.97;;;5.90;99.90;;;;;;5010483;28;20864;-73
2022/12/22 07:47:41;;;;;;;133.63;28.57;;;6.00;99.90;;;;;;5001997;28;20438;-73
2022/12/22 07:50:28;;;;;;;125.25;27.60;;;6.00;99.90;;;;;;5023379;28;20415;-73
2022/12/22 07:52:55;;;;;;;115.43;27.27;;;6.20;99.90;;;;;;5009342;28;20422;-74
2022/12/22 07:55:22;;;;;;;161.43;29.27;;;6.20;99.90;;;;;;5008693;28;20508;-74
2022/12/22 07:57:48;;;;;;;169.57;30.90;;;6.20;99.90;;;;;;5007554;28;20415;-74
2022/12/22 08:00:14;;;;;;;288.13;33.13;;;6.30;99.90;;;;;;5027320;28;20438;-75
2022/12/22 08:02:40;;;;;;;352.17;35.38;;;6.30;99.90;;;;;;4997107;28;20431;-74
2022/12/22 08:05:07;;;;;;;376.80;34.80;;;6.20;99.90;;;;;;5006561;28;20427;-74
2022/12/22 08:07:33;;;;;;;401.55;37.22;;;6.30;99.90;;;;;;5000356;28;20491;-74
2022/12/22 08:09:58;;;;;;;412.43;37.33;;;6.30;99.90;;;;;;5010121;28;20403;-74
2022/12/22 08:12:24;;;;;;;444.48;37.22;;;6.30;99.90;;;;;;5006984;28;21509;-74
2022/12/22 08:14:50;;;;;;;444.08;40.15;;;6.20;99.90;;;;;;5024882;28;20415;-74
2022/12/22 08:17:16;;;;;;;387.47;34.67;;;6.30;99.90;;;;;;5024211;28;20422;-74
2022/12/22 08:19:41;;;;;;;408.95;36.17;;;6.30;99.90;;;;;;5025127;28;20909;-74
2022/12/22 08:22:07;;;;;;;436.33;37.50;;;6.20;99.90;;;;;;5006165;28;20536;-74
2022/12/22 08:24:33;;;;;;;354.03;31.70;;;6.20;99.90;;;;;;5026126;28;20790;-74
2022/12/22 08:27:04;;;;;;;381.52;31.65;;;6.20;99.90;;;;;;5025235;28;20823;-74
2022/12/22 08:29:41;;;;;;;428.45;36.63;;;6.20;99.90;;;;;;5024976;28;20834;-74
2022/12/22 08:32:06;;;;;;;359.10;31.85;;;6.20;99.90;;;;;;5022703;28;20426;-74
2022/12/22 08:34:32;;;;;;;351.83;32.80;;;6.20;99.90;;;;;;5018589;28;20427;-74
2022/12/22 08:37:00;;;;;;;384.42;34.33;;;6.30;99.90;;;;;;5025029;28;20419;-74
2022/12/22 08:39:29;;;;;;;429.15;35.55;;;6.30;99.90;;;;;;5005714;28;20411;-74
2022/12/22 08:41:56;;;;;;;336.88;33.03;;;6.30;99.90;;;;;;4988439;28;20413;-74
2022/12/22 08:44:24;;;;;;;311.02;33.35;;;6.40;99.90;;;;;;5018864;28;20449;-74
2022/12/22 08:46:52;;;;;;;223.97;29.00;;;6.40;99.90;;;;;;5008678;28;20463;-74
2022/12/22 08:49:18;;;;;;;275.92;30.60;;;6.40;99.90;;;;;;5007555;28;20440;-74
2022/12/22 08:51:44;;;;;;;245.93;31.08;;;6.40;99.90;;;;;;5006662;28;20411;-73
2022/12/22 08:54:10;;;;;;;279.38;32.63;;;6.40;99.90;;;;;;5009372;28;20806;-73
2022/12/22 08:56:37;;;;;;;335.48;34.88;;;6.40;99.90;;;;;;5009283;28;20407;-73
2022/12/22 08:59:06;;;;;;;271.40;32.75;;;6.40;99.90;;;;;;5027261;28;20418;-73
2022/12/22 09:01:33;;;;;;;305.52;34.80;;;6.40;99.90;;;;;;5026895;28;20492;-73
2022/12/22 09:04:00;;;;;;;270.83;33.65;;;6.40;99.90;;;;;;5008683;28;20434;-73
2022/12/22 09:06:25;;;;;;;297.35;34.30;;;6.40;99.90;;;;;;5009363;28;20771;-73
2022/12/22 09:08:59;;;;;;;194.33;30.60;;;6.40;99.90;;;;;;5026178;28;20403;-73
2022/12/22 09:11:26;;;;;;;170.48;31.17;;;6.40;99.90;;;;;;5022101;28;20407;-73
2022/12/22 09:13:55;;;;;;;193.77;32.60;;;6.50;99.90;;;;;;5008264;28;20442;-73
2022/12/22 09:16:21;;;;;;;161.30;30.98;;;6.50;99.90;;;;;;5008904;28;20423;-73
2022/12/22 09:18:47;;;;;;;183.55;31.40;;;6.50;99.90;;;;;;5008990;28;20760;-74
2022/12/22 09:21:13;;;;;;;179.45;31.55;;;6.50;99.90;;;;;;5008589;28;20446;-73
2022/12/22 09:23:39;;;;;;;185.13;32.60;;;6.50;99.90;;;;;;5026702;28;20964;-73
2022/12/22 09:26:09;;;;;;;191.73;30.83;;;6.50;99.90;;;;;;5026567;28;20407;-73
2022/12/22 09:28:35;;;;;;;210.52;30.70;;;6.60;99.90;;;;;;5027159;28;20399;-73
2022/12/22 09:31:01;;;;;;;223.55;31.02;;;6.60;99.90;;;;;;5008453;28;20422;-73
2022/12/22 09:33:28;;;;;;;219.40;31.03;;;6.50;99.90;;;;;;5027230;28;20410;-73
2022/12/22 09:35:54;;;;;;;167.80;28.60;;;6.50;99.90;;;;;;5027101;28;20455;-73
2022/12/22 09:38:19;;;;;;;156.77;28.58;;;6.50;99.90;;;;;;5026990;28;20901;-74
2022/12/22 09:40:45;;;;;;;182.63;28.03;;;6.50;99.90;;;;;;5003845;28;20435;-74
2022/12/22 09:43:21;;;;;;;194.18;27.90;;;6.50;99.90;;;;;;5008954;28;20411;-74
2022/12/22 09:45:46;;;;;;;205.80;30.47;;;6.50;99.90;;;;;;5029815;28;20427;-74
2022/12/22 09:48:13;;;;;;;187.60;28.97;;;6.50;99.90;;;;;;5029289;28;20462;-74
2022/12/22 09:50:41;;;;;;;166.38;28.38;;;6.60;99.90;;;;;;5003351;28;20415;-73
2022/12/22 09:53:19;;;;;;;141.73;28.80;;;6.60;99.90;;;;;;5029098;28;20434;-74
2022/12/22 09:55:47;;;;;;;152.68;29.33;;;6.50;99.90;;;;;;5004202;28;20733;-74
2022/12/22 09:58:19;;;;;;;123.45;27.70;;;6.60;99.90;;;;;;5028865;28;20827;-74
2022/12/22 10:00:50;;;;;;;146.23;29.13;;;6.60;99.90;;;;;;5010609;28;20447;-74
2022/12/22 10:03:31;;;;;;;101.10;25.60;;;6.60;99.90;;;;;;5011991;28;21201;-74
2022/12/22 10:06:17;;;;;;;111.32;26.90;;;6.70;99.90;;;;;;5026370;28;20932;-74
2022/12/22 10:08:43;;;;;;;87.80;24.38;;;6.70;99.90;;;;;;5025336;28;20422;-74
2022/12/22 10:11:17;;;;;;;79.17;22.63;;;6.70;99.90;;;;;;5006432;28;20411;-74
2022/12/22 10:13:44;;;;;;;83.63;22.70;;;6.80;99.90;;;;;;5012237;28;20948;-74
2022/12/22 10:16:27;;;;;;;63.90;20.38;;;6.90;99.90;;;;;;5007972;28;20760;-74
2022/12/22 10:19:08;;;;;;;66.63;19.77;;;7.00;99.90;;;;;;5010640;28;20442;-74
2022/12/22 10:21:34;;;;;;;64.43;18.83;;;7.20;99.90;;;;;;5028091;28;20454;-74
2022/12/22 10:24:00;;;;;;;56.45;17.77;;;7.30;99.90;;;;;;5005114;28;20435;-74
2022/12/22 10:26:32;;;;;;;57.70;17.25;;;7.30;99.90;;;;;;5023941;28;20964;-74
2022/12/22 10:29:02;;;;;;;47.05;16.02;;;7.50;99.90;;;;;;5024499;28;20431;-74
2022/12/22 10:31:30;;;;;;;42.20;15.03;;;7.60;99.90;;;;;;5026851;28;20473;-74
2022/12/22 10:34:19;;;;;;;36.05;13.98;;;7.60;99.90;;;;;;5010145;28;20906;-74
2022/12/22 10:36:50;;;;;;;30.98;13.05;;;7.70;99.90;;;;;;4999917;28;20415;-75
2022/12/22 10:39:25;;;;;;;30.45;13.07;;;7.80;99.90;;;;;;4993312;28;20434;-74
2022/12/22 10:41:54;;;;;;;33.78;13.35;;;7.90;99.90;;;;;;5011635;28;20422;-74
2022/12/22 10:44:26;;;;;;;30.92;12.70;;;7.90;99.90;;;;;;5028151;28;20431;-74
2022/12/22 10:47:09;;;;;;;30.30;12.88;;;8.00;99.90;;;;;;5028367;28;20824;-74
2022/12/22 10:49:38;;;;;;;26.80;12.45;;;8.20;99.90;;;;;;4998743;28;20413;-74
2022/12/22 10:52:17;;;;;;;27.25;11.05;;;8.40;99.90;;;;;;5027245;28;20415;-74
2022/12/22 10:54:43;;;;;;;23.97;11.20;;;8.50;99.90;;;;;;5021810;28;20412;-74
2022/12/22 10:57:12;;;;;;;25.92;10.40;;;8.50;99.90;;;;;;5007367;28;20411;-74
2022/12/22 10:59:59;;;;;;;22.48;10.32;;;8.40;99.90;;;;;;5009089;28;20494;-74
2022/12/22 11:02:31;;;;;;;22.42;9.90;;;8.40;99.90;;;;;;5010068;28;21048;-75
2022/12/22 11:05:04;;;;;;;18.75;8.68;;;8.40;99.90;;;;;;5011061;28;20407;-74
2022/12/22 11:07:32;;;;;;;21.45;9.10;;;8.40;99.90;;;;;;5028835;28;20834;-74
2022/12/22 11:09:58;;;;;;;18.53;8.97;;;8.40;99.90;;;;;;5004431;28;20492;-74
2022/12/22 11:13:03;;;;;;;17.53;8.57;;;8.40;99.90;;;;;;5027046;28;20841;-74
2022/12/22 11:15:53;;;;;;;19.80;9.23;;;8.50;99.90;;;;;;5005563;28;20442;-74
2022/12/22 11:18:44;;;;;;;19.70;9.35;;;8.50;99.90;;;;;;5010606;28;20453;-74
2022/12/22 11:21:28;;;;;;;18.70;8.25;;;8.80;99.90;;;;;;5027876;28;20427;-74
2022/12/22 11:24:05;;;;;;;16.88;7.45;;;9.00;99.90;;;;;;5006925;28;20477;-74
2022/12/22 11:26:59;;;;;;;16.33;7.18;;;9.00;99.90;;;;;;5005978;28;20535;-74
2022/12/22 11:29:44;;;;;;;16.65;7.78;;;9.10;99.90;;;;;;4991670;28;21116;-74
2022/12/22 11:32:22;;;;;;;13.02;6.88;;;9.30;99.90;;;;;;4961095;28;21081;-74
2022/12/22 11:35:04;;;;;;;14.38;7.22;;;9.40;99.90;;;;;;5025114;28;21014;-75
2022/12/22 11:37:55;;;;;;;15.10;7.35;;;9.30;99.90;;;;;;5006618;28;20438;-74
2022/12/22 11:40:29;;;;;;;15.38;7.25;;;9.10;99.90;;;;;;5028203;28;20505;-74
2022/12/22 11:43:20;;;;;;;16.58;7.38;;;9.00;99.90;;;;;;5027572;28;20475;-74
2022/12/22 11:46:17;;;;;;;13.93;7.15;;;8.90;99.90;;;;;;5005265;28;20431;-74
2022/12/22 11:49:14;;;;;;;13.80;6.63;;;8.90;99.90;;;;;;5006499;28;20419;-74
2022/12/22 11:51:45;;;;;;;13.07;6.75;;;8.80;99.90;;;;;;5017196;28;20427;-74
2022/12/22 11:54:34;;;;;;;20.23;7.70;;;8.80;99.90;;;;;;5005889;28;20446;-74
2022/12/22 11:57:23;;;;;;;15.70;7.35;;;8.80;99.90;;;;;;5021546;28;20804;-74
2022/12/22 12:00:06;;;;;;;17.88;7.97;;;8.70;99.90;;;;;;5023892;28;20557;-74
2022/12/22 12:02:53;;;;;;;16.52;7.90;;;8.60;99.90;;;;;;5025113;28;20411;-74
2022/12/22 12:05:28;;;;;;;19.33;7.90;;;8.60;99.90;;;;;;4985227;28;20437;-75
2022/12/22 12:08:04;;;;;;;16.75;7.95;;;8.50;99.90;;;;;;5009642;28;20462;-75
2022/12/22 12:10:42;;;;;;;18.63;7.88;;;8.50;99.90;;;;;;5006759;28;20427;-75
2022/12/22 12:13:40;;;;;;;15.63;7.70;;;8.60;99.90;;;;;;4990257;28;20480;-75
2022/12/22 12:16:33;;;;;;;15.27;6.95;;;8.90;99.90;;;;;;5025722;28;20426;-75
2022/12/22 12:19:02;;;;;;;14.15;6.47;;;9.30;99.90;;;;;;4993388;28;20427;-75
2022/12/22 12:21:34;;;;;;;13.68;6.03;;;9.30;99.90;;;;;;5001238;28;20435;-75
2022/12/22 12:24:11;;;;;;;13.53;5.37;;;9.30;99.90;;;;;;5008396;28;20517;-74
2022/12/22 12:26:50;;;;;;;13.70;5.75;;;9.40;99.90;;;;;;5020157;28;20514;-75
2022/12/22 12:29:23;;;;;;;15.40;5.15;;;9.80;99.90;;;;;;5026433;28;20453;-75
2022/12/22 12:32:01;;;;;;;10.47;4.70;;;9.80;99.90;;;;;;5022001;28;20795;-75
2022/12/22 12:34:32;;;;;;;11.32;4.18;;;9.70;99.90;;;;;;5026259;28;20966;-75
2022/12/22 12:37:05;;;;;;;11.18;4.07;;;9.70;99.90;;;;;;5023234;28;20425;-74
2022/12/22 12:39:45;;;;;;;9.55;3.35;;;9.70;99.90;;;;;;4990202;28;20484;-73
2022/12/22 12:42:29;;;;;;;12.20;3.88;;;9.50;99.90;;;;;;5005635;28;20418;-73
2022/12/22 12:44:55;;;;;;;15.32;4.05;;;9.30;99.90;;;;;;5025726;28;20454;-72
2022/12/22 12:47:30;;;;;;;13.03;3.67;;;9.20;99.90;;;;;;5024721;28;20499;-73
2022/12/22 12:50:08;;;;;;;17.75;4.30;;;9.40;99.90;;;;;;5021555;28;20445;-73
2022/12/22 12:52:39;;;;;;;10.15;2.78;;;9.60;99.90;;;;;;5023487;28;20400;-73
2022/12/22 12:55:32;;;;;;;11.40;3.40;;;9.50;99.90;;;;;;5025271;28;20481;-73
2022/12/22 12:58:01;;;;;;;8.18;3.22;;;9.40;99.90;;;;;;5002757;28;20427;-73
2022/12/22 13:00:32;;;;;;;11.48;3.60;;;9.20;99.90;;;;;;5024183;28;20439;-73
2022/12/22 13:03:05;;;;;;;12.07;3.65;;;9.10;99.90;;;;;;5003992;28;20417;-72
2022/12/22 13:05:47;;;;;;;14.65;3.90;;;9.00;99.90;;;;;;5007847;28;20605;-73
2022/12/22 13:08:29;;;;;;;10.70;4.45;;;8.90;99.90;;;;;;5024459;28;20418;-73
2022/12/22 13:10:54;;;;;;;12.38;3.45;;;8.80;99.90;;;;;;5000497;28;20508;-75
2022/12/22 13:13:20;;;;;;;9.90;3.67;;;8.70;99.90;;;;;;5029526;28;20495;-74
2022/12/22 13:15:48;;;;;;;15.33;3.70;;;8.70;99.90;;;;;;5008581;28;20490;-75
2022/12/22 13:18:25;;;;;;;13.88;4.43;;;8.70;99.90;;;;;;5029259;28;20430;-75
2022/12/22 13:21:04;;;;;;;13.98;3.70;;;8.70;99.90;;;;;;5025150;28;20451;-74
2022/12/22 13:23:36;;;;;;;14.85;3.83;;;8.70;99.90;;;;;;5011294;28;20431;-73
2022/12/22 13:26:11;;;;;;;11.25;3.20;;;8.80;99.90;;;;;;5009929;28;20818;-73
2022/12/22 13:28:40;;;;;;;12.57;2.97;;;8.80;99.90;;;;;;5003964;28;20501;-73
2022/12/22 13:31:14;;;;;;;14.05;4.00;;;8.80;99.90;;;;;;5028459;28;20483;-73
2022/12/22 13:33:43;;;;;;;14.30;4.20;;;8.80;99.90;;;;;;5007086;28;20419;-73
2022/12/22 13:36:23;;;;;;;12.65;3.60;;;8.80;99.90;;;;;;5011625;28;20415;-73
2022/12/22 13:39:01;;;;;;;13.52;3.00;;;8.70;99.90;;;;;;5024773;28;20411;-73
2022/12/22 13:41:28;;;;;;;14.30;3.25;;;8.70;99.90;;;;;;5026018;28;20430;-73
2022/12/22 13:44:00;;;;;;;11.88;3.00;;;8.70;99.90;;;;;;5011472;28;20763;-73
2022/12/22 13:46:26;;;;;;;13.40;3.75;;;8.60;99.90;;;;;;5011556;28;20498;-74
2022/12/22 13:48:55;;;;;;;14.57;3.25;;;8.60;99.90;;;;;;5007054;28;20467;-74
2022/12/22 13:51:31;;;;;;;9.73;2.55;;;8.60;99.90;;;;;;5026733;28;20910;-74
2022/12/22 13:54:01;;;;;;;11.18;2.60;;;8.60;99.90;;;;;;5005429;28;20824;-74
2022/12/22 13:56:33;;;;;;;11.10;2.78;;;8.60;99.90;;;;;;5010827;28;21129;-73
2022/12/22 13:59:00;;;;;;;11.43;2.42;;;8.50;99.90;;;;;;5007601;28;20434;-73
2022/12/22 14:01:27;;;;;;;13.45;2.75;;;8.50;99.90;;;;;;5025291;28;20438;-73
2022/12/22 14:04:01;;;;;;;14.30;2.65;;;8.50;99.90;;;;;;5010450;28;20433;-73
2022/12/22 14:06:28;;;;;;;13.15;2.40;;;8.50;99.90;;;;;;5010305;28;20926;-73
2022/12/22 14:09:12;;;;;;;11.40;2.50;;;8.50;99.90;;;;;;5010540;28;20430;-73
2022/12/22 14:11:39;;;;;;;10.10;2.22;;;8.50;99.90;;;;;;5027378;28;20502;-74
2022/12/22 14:14:17;;;;;;;11.80;2.67;;;8.50;99.90;;;;;;5005861;28;20942;-73
2022/12/22 14:16:48;;;;;;;14.93;2.53;;;8.50;99.90;;;;;;5028004;28;20423;-73
2022/12/22 14:19:16;;;;;;;12.77;2.88;;;8.50;99.90;;;;;;5028971;28;20434;-73
2022/12/22 14:21:46;;;;;;;9.73;2.90;;;8.50;99.90;;;;;;5009709;28;20467;-73
2022/12/22 14:24:19;;;;;;;12.33;2.50;;;8.50;99.90;;;;;;5028497;28;21090;-74
2022/12/22 14:26:45;;;;;;;13.85;2.90;;;8.50;99.90;;;;;;5026067;28;20403;-74
2022/12/22 14:29:19;;;;;;;12.85;2.80;;;8.50;99.90;;;;;;5029400;28;20421;-74
2022/12/22 14:31:58;;;;;;;14.70;2.80;;;8.50;99.90;;;;;;5008821;28;20411;-74
2022/12/22 14:34:28;;;;;;;12.05;2.28;;;8.50;99.90;;;;;;5025566;28;20426;-74
2022/12/22 14:36:54;;;;;;;15.40;3.17;;;8.50;99.90;;;;;;5009501;28;20472;-74
2022/12/22 14:39:32;;;;;;;10.90;2.47;;;8.50;99.90;;;;;;5027766;28;20833;-74
2022/12/22 14:42:10;;;;;;;9.63;2.67;;;8.50;99.90;;;;;;4993331;28;20419;-74
2022/12/22 14:44:45;;;;;;;12.50;2.93;;;8.50;99.90;;;;;;4992054;28;21016;-74
2022/12/22 14:47:16;;;;;;;11.38;3.03;;;8.50;99.90;;;;;;5005403;28;20423;-74
2022/12/22 14:49:49;;;;;;;10.23;2.78;;;8.60;99.90;;;;;;5008262;28;20431;-75
2022/12/22 14:52:21;;;;;;;11.63;2.88;;;8.60;99.90;;;;;;5021933;28;20419;-74
2022/12/22 14:54:49;;;;;;;12.68;3.08;;;8.60;99.90;;;;;;5020924;28;20413;-74
2022/12/22 14:57:20;;;;;;;12.98;2.92;;;8.60;99.90;;;;;;5018030;28;20443;-74
2022/12/22 15:00:05;;;;;;;7.25;2.88;;;8.60;99.90;;;;;;5026232;28;20432;-74
2022/12/22 15:02:37;;;;;;;11.68;3.13;;;8.60;99.90;;;;;;4991415;28;20490;-74
2022/12/22 15:05:07;;;;;;;10.40;3.05;;;8.50;99.90;;;;;;5010296;28;20802;-74
2022/12/22 15:07:44;;;;;;;12.65;3.83;;;8.50;99.90;;;;;;5027113;28;20418;-74
2022/12/22 15:10:10;;;;;;;10.15;3.17;;;8.40;99.90;;;;;;5003572;28;20412;-74
2022/12/22 15:12:35;;;;;;;12.63;3.50;;;8.40;99.90;;;;;;5008758;28;20407;-74
2022/12/22 15:15:01;;;;;;;11.37;2.90;;;8.40;99.90;;;;;;5006310;28;20763;-74
2022/12/22 15:17:28;;;;;;;13.15;2.92;;;8.40;99.90;;;;;;5026288;28;20482;-74
2022/12/22 15:19:56;;;;;;;13.15;3.05;;;8.40;99.90;;;;;;4990309;28;20445;-74
2022/12/22 15:22:22;;;;;;;11.32;2.97;;;8.30;99.90;;;;;;4989278;28;20413;-74
2022/12/22 15:24:48;;;;;;;9.93;2.90;;;8.30;99.90;;;;;;4998078;28;20422;-74
2022/12/22 15:27:13;;;;;;;12.70;2.90;;;8.30;99.90;;;;;;5024626;28;20922;-73
2022/12/22 15:29:39;;;;;;;12.43;2.78;;;8.30;99.90;;;;;;5006948;28;20462;-74
2022/12/22 15:32:10;;;;;;;9.60;2.90;;;8.30;99.90;;;;;;5020854;28;20458;-74
2022/12/22 15:34:36;;;;;;;9.77;2.70;;;8.20;99.90;;;;;;5024121;28;20939;-74
2022/12/22 15:37:02;;;;;;;12.07;3.20;;;8.20;99.90;;;;;;5004197;28;20506;-74
2022/12/22 15:39:27;;;;;;;7.93;2.53;;;8.20;99.90;;;;;;5024126;28;20437;-74
2022/12/22 15:41:53;;;;;;;11.63;3.03;;;8.20;99.90;;;;;;5005839;28;20442;-74
2022/12/22 15:44:20;;;;;;;8.27;2.47;;;8.20;99.90;;;;;;5008496;28;20528;-74
2022/12/22 15:46:53;;;;;;;9.77;2.45;;;8.10;99.90;;;;;;5009768;28;21027;-74
2022/12/22 15:49:21;;;;;;;9.77;2.20;;;8.10;99.90;;;;;;5008448;28;20426;-74
2022/12/22 15:51:50;;;;;;;10.48;3.00;;;8.10;99.90;;;;;;5007691;28;20427;-74
2022/12/22 15:54:17;;;;;;;9.70;2.75;;;8.10;99.90;;;;;;5025700;28;20426;-74
2022/12/22 15:56:43;;;;;;;10.50;2.63;;;8.10;99.90;;;;;;5008335;28;21004;-74
2022/12/22 15:59:15;;;;;;;11.32;2.92;;;8.10;99.90;;;;;;5007280;28;20426;-74
2022/12/22 16:01:41;;;;;;;11.63;2.80;;;8.10;99.90;;;;;;5026327;28;20521;-74
2022/12/22 16:04:07;;;;;;;9.35;2.42;;;8.10;99.90;;;;;;5009462;28;20427;-74
2022/12/22 16:06:32;;;;;;;9.50;2.40;;;8.10;99.90;;;;;;5010093;28;20423;-74
2022/12/22 16:08:59;;;;;;;9.25;2.70;;;8.10;99.90;;;;;;5026903;28;21005;-74
2022/12/22 16:11:25;;;;;;;6.97;2.40;;;8.10;99.90;;;;;;5008903;28;20791;-74
2022/12/22 16:13:51;;;;;;;10.60;2.58;;;8.10;99.90;;;;;;4992171;28;20543;-74
2022/12/22 16:16:17;;;;;;;9.10;3.55;;;8.10;99.90;;;;;;5010176;28;20422;-74
2022/12/22 16:18:42;;;;;;;8.90;3.25;;;8.10;99.90;;;;;;5018150;28;20431;-74
2022/12/22 16:21:21;;;;;;;10.60;4.10;;;8.10;99.90;;;;;;5009811;28;20423;-75
2022/12/22 16:23:49;;;;;;;11.02;4.18;;;8.10;99.90;;;;;;5026134;28;20427;-74
2022/12/22 16:26:18;;;;;;;11.15;4.38;;;8.10;99.90;;;;;;5025904;28;20849;-75
2022/12/22 16:28:43;;;;;;;11.40;4.33;;;8.10;99.90;;;;;;5007937;28;20427;-74